Archival Weather

Václav Havel Intl Apt

Prague, Czechia (LKPR)

Report from: Monday, May 29, 2023 8:00 PM CEST
Current time: Saturday, February 24, 2024 5:20 PM CET

Current weather – Weather history – Daily summaries
Weather forecast

Temperature19.0°C (66.2°F)
Dew point6.0°C (42.8°F)
Winds 8 kts (4.1 m/s, 9.2 mph) North (360°)
Clouds Sky clear
Altimeter30.09 in.Hg (1019 mB)
Relative humidity43 %
Density altitude413 ft. (126 m)
Remarks Ceiling and visibility OK
No significant changes expected in the next two hours
Flight conditions Visual Meteorological Conditions
Raw dataLKPR 291800Z 36008KT CAVOK 19/06 Q1019 NOSIG
An error has occurred. This application may no longer respond until reloaded. Reload 🗙